createdAt,value
2022-08-05T00:00:48.379Z,1.90
2022-08-05T00:06:05.410Z,2.17
2022-08-05T00:11:20.683Z,2.40
2022-08-05T00:16:35.386Z,2.13
2022-08-05T00:21:38.773Z,2.20
2022-08-05T00:26:51.668Z,1.80
2022-08-05T00:32:13.414Z,2.00
2022-08-05T00:37:16.989Z,2.22
2022-08-05T00:42:39.934Z,2.40
2022-08-05T00:47:57.128Z,2.35
2022-08-05T00:52:59.830Z,2.47
2022-08-05T00:58:01.955Z,2.33
2022-08-05T01:03:07.892Z,2.40
2022-08-05T01:08:40.968Z,2.35
2022-08-05T01:14:00.045Z,2.38
2022-08-05T01:19:16.305Z,2.57
2022-08-05T01:24:40.682Z,2.50
2022-08-05T01:29:50.151Z,2.15
2022-08-05T01:34:58.858Z,2.40
2022-08-05T01:40:02.198Z,2.60
2022-08-05T01:45:08.288Z,2.05
2022-08-05T01:50:15.396Z,2.20
2022-08-05T01:55:21.240Z,2.40
2022-08-05T02:00:30.502Z,1.88
2022-08-05T02:05:36.761Z,2.00
2022-08-05T02:11:12.779Z,2.47
2022-08-05T02:16:16.970Z,2.70
2022-08-05T02:21:31.514Z,2.50
2022-08-05T02:26:54.537Z,2.10
2022-08-05T02:31:58.163Z,1.88
2022-08-05T02:37:09.751Z,1.98
2022-08-05T02:42:12.074Z,1.77
2022-08-05T02:47:58.540Z,1.65
2022-08-05T02:52:53.797Z,1.52
2022-08-05T02:58:10.618Z,1.75
2022-08-05T03:03:20.193Z,1.98
2022-08-05T03:08:29.613Z,1.80
2022-08-05T03:13:52.141Z,1.65
2022-08-05T03:18:53.892Z,2.17
2022-08-05T03:23:57.959Z,2.10
2022-08-05T03:29:00.172Z,2.10
2022-08-05T03:34:04.337Z,2.50
2022-08-05T03:39:13.082Z,2.40
2022-08-05T03:44:22.447Z,2.25
2022-08-05T03:49:24.340Z,2.25
2022-08-05T03:56:05.996Z,2.08
2022-08-05T04:00:33.352Z,2.45
2022-08-05T04:05:36.335Z,2.35
2022-08-05T04:10:45.136Z,2.58
2022-08-05T04:16:03.243Z,2.53
2022-08-05T04:21:07.594Z,2.85
2022-08-05T04:26:17.451Z,3.17
2022-08-05T04:31:20.473Z,3.15
2022-08-05T04:36:45.648Z,2.75
2022-08-05T04:41:44.494Z,2.60
2022-08-05T04:46:48.551Z,3.30
2022-08-05T04:51:50.626Z,2.95
2022-08-05T04:57:02.498Z,2.78
2022-08-05T05:02:08.196Z,2.72
2022-08-05T05:07:29.511Z,3.17
2022-08-05T05:12:32.073Z,3.15
2022-08-05T05:17:56.743Z,3.53
2022-08-05T05:23:08.284Z,3.13
2022-08-05T05:28:21.622Z,3.13
2022-08-05T05:33:26.792Z,3.55
2022-08-05T05:38:29.603Z,3.38
2022-08-05T05:43:57.598Z,2.95
2022-08-05T05:48:53.475Z,3.20
2022-08-05T05:53:59.512Z,3.42
2022-08-05T05:59:07.399Z,3.38
2022-08-05T06:04:13.126Z,3.20
2022-08-05T06:09:26.503Z,3.28
2022-08-05T06:14:40.225Z,3.38
2022-08-05T06:19:42.346Z,2.70
2022-08-05T06:24:58.886Z,3.10
2022-08-05T06:30:02.751Z,3.10
2022-08-05T06:35:15.669Z,3.30
2022-08-05T06:40:32.399Z,2.78
2022-08-05T06:45:44.015Z,2.80
2022-08-05T06:50:47.139Z,3.08
2022-08-05T06:55:51.878Z,2.63
2022-08-05T07:00:54.253Z,3.03
2022-08-05T07:05:56.592Z,2.58
2022-08-05T07:10:59.009Z,2.90
2022-08-05T07:17:56.476Z,2.88
2022-08-05T07:22:00.038Z,3.33
2022-08-05T07:27:03.483Z,2.60
2022-08-05T07:32:12.424Z,2.97
2022-08-05T07:37:16.544Z,3.38
2022-08-05T07:42:18.839Z,3.40
2022-08-05T07:47:42.313Z,3.55
2022-08-05T07:52:44.799Z,3.53
2022-08-05T07:57:58.931Z,3.47
2022-08-05T08:03:14.707Z,3.13
2022-08-05T08:08:19.765Z,3.60
2022-08-05T08:13:29.432Z,3.45
2022-08-05T08:18:31.403Z,3.37
2022-08-05T08:24:02.357Z,3.50
2022-08-05T08:29:02.041Z,3.92
2022-08-05T08:34:18.667Z,4.05
2022-08-05T08:39:21.852Z,3.90
2022-08-05T08:45:23.562Z,3.58
2022-08-05T08:50:06.070Z,3.55
2022-08-05T08:55:13.413Z,3.75
2022-08-05T09:00:15.654Z,3.88
2022-08-05T09:05:38.550Z,3.67
2022-08-05T09:10:46.935Z,3.30
2022-08-05T09:15:49.430Z,3.30
2022-08-05T09:20:51.464Z,3.38
2022-08-05T09:26:09.231Z,3.25
2022-08-05T09:31:23.462Z,3.13
2022-08-05T09:36:56.268Z,3.05
2022-08-05T09:42:04.837Z,3.08
2022-08-05T09:47:21.843Z,3.15
2022-08-05T09:52:28.076Z,3.30
2022-08-05T09:57:45.464Z,3.45
2022-08-05T10:02:54.812Z,3.53
2022-08-05T10:08:35.703Z,3.25
2022-08-05T10:13:44.081Z,2.95
2022-08-05T10:18:49.905Z,3.10
2022-08-05T10:24:00.282Z,3.22
2022-08-05T10:29:02.848Z,3.30
2022-08-05T10:34:06.984Z,3.85
2022-08-05T10:39:24.859Z,3.60
2022-08-05T10:44:39.192Z,4.07
2022-08-05T10:50:33.237Z,3.55
2022-08-05T10:55:25.653Z,3.70
2022-08-05T11:00:30.169Z,3.80
2022-08-05T11:05:36.363Z,3.45
2022-08-05T11:10:50.431Z,3.60
2022-08-05T11:16:47.530Z,3.33
2022-08-05T11:21:49.516Z,3.58
2022-08-05T11:27:50.981Z,3.38
2022-08-05T11:33:43.849Z,3.33
2022-08-05T11:38:51.268Z,3.22
2022-08-05T11:44:06.730Z,3.20
2022-08-05T11:49:16.733Z,2.97
2022-08-05T11:54:33.446Z,3.27
2022-08-05T11:59:49.369Z,2.97
2022-08-05T12:04:58.971Z,2.90
2022-08-05T12:10:09.195Z,2.63
2022-08-05T12:15:35.971Z,2.38
2022-08-05T12:20:40.651Z,2.90
2022-08-05T12:25:51.544Z,2.80
2022-08-05T12:30:57.546Z,2.35
2022-08-05T12:36:07.908Z,2.53
2022-08-05T12:41:13.954Z,2.28
2022-08-05T12:46:45.486Z,2.67
2022-08-05T12:52:13.586Z,2.50
2022-08-05T12:57:13.346Z,2.50
2022-08-05T13:02:21.373Z,2.30
2022-08-05T13:07:59.463Z,1.98
2022-08-05T13:12:58.072Z,2.20
2022-08-05T13:18:00.602Z,1.70
2022-08-05T13:23:06.337Z,1.90
2022-08-05T13:28:10.615Z,1.92
2022-08-05T13:33:14.416Z,1.77
2022-08-05T13:38:38.482Z,1.88
2022-08-05T13:43:54.481Z,1.92
2022-08-05T13:49:00.853Z,1.98
2022-08-05T13:54:03.122Z,2.20
2022-08-05T13:59:19.512Z,2.20
2022-08-05T14:04:41.082Z,2.10
2022-08-05T14:09:46.507Z,2.03
2022-08-05T14:14:48.998Z,2.38
2022-08-05T14:19:59.605Z,2.00
2022-08-05T14:25:06.431Z,2.00
2022-08-05T14:30:25.549Z,1.90
2022-08-05T14:35:36.283Z,2.35
2022-08-05T14:40:39.622Z,2.28
2022-08-05T14:45:45.870Z,2.25
2022-08-05T14:50:47.863Z,1.85
2022-08-05T14:55:52.620Z,1.92
2022-08-05T15:00:59.272Z,1.90
2022-08-05T15:06:06.927Z,2.10
2022-08-05T15:11:10.598Z,1.95
2022-08-05T15:16:14.526Z,1.83
2022-08-05T15:21:20.938Z,2.13
2022-08-05T15:26:32.100Z,1.50
2022-08-05T15:31:34.745Z,1.48
2022-08-05T15:36:38.404Z,1.88
2022-08-05T15:41:55.770Z,1.65
2022-08-05T15:52:13.717Z,1.73
2022-08-05T15:57:34.652Z,2.00
2022-08-05T16:02:37.346Z,1.80
2022-08-05T16:07:39.393Z,2.28
2022-08-05T16:12:49.008Z,2.20
2022-08-05T16:17:57.905Z,2.08
2022-08-05T16:23:00.186Z,2.53
2022-08-05T16:28:05.511Z,2.00
2022-08-05T16:33:08.272Z,1.88
2022-08-05T16:38:24.633Z,1.88
2022-08-05T16:43:30.450Z,2.45
2022-08-05T16:48:33.865Z,2.35
2022-08-05T16:54:02.986Z,2.13
2022-08-05T16:59:08.275Z,1.73
2022-08-05T17:04:10.589Z,2.10
2022-08-05T17:09:12.495Z,2.30
2022-08-05T17:14:22.207Z,2.08
2022-08-05T17:24:40.526Z,2.33
2022-08-05T17:29:52.774Z,1.90
2022-08-05T17:35:02.262Z,1.63
2022-08-05T17:40:10.894Z,1.85
2022-08-05T17:50:30.509Z,1.77
2022-08-05T17:55:38.082Z,1.80
2022-08-05T18:00:47.719Z,2.63
2022-08-05T18:05:53.683Z,3.33
2022-08-05T18:10:56.308Z,2.22
2022-08-05T18:15:59.187Z,2.17
2022-08-05T18:21:01.676Z,1.83
2022-08-05T18:26:03.605Z,2.53
2022-08-05T18:31:07.349Z,2.10
2022-08-05T18:36:15.350Z,2.20
2022-08-05T18:41:56.809Z,2.53
2022-08-05T18:46:40.956Z,2.65
2022-08-05T18:52:04.358Z,2.97
2022-08-05T18:57:14.991Z,4.20
2022-08-05T19:02:28.210Z,5.47
2022-08-05T19:07:45.063Z,5.03
2022-08-05T19:12:48.538Z,5.47
2022-08-05T19:18:09.365Z,6.07
2022-08-05T19:23:22.601Z,5.70
2022-08-05T19:28:35.117Z,5.10
2022-08-05T19:33:38.222Z,4.88
2022-08-05T19:38:43.914Z,5.55
2022-08-05T19:44:05.728Z,6.00
2022-08-05T19:49:08.433Z,6.50
2022-08-05T19:54:25.580Z,4.90
2022-08-05T20:00:00.225Z,5.82
2022-08-05T20:04:58.760Z,5.05
2022-08-05T20:10:01.366Z,4.90
2022-08-05T20:15:07.528Z,4.60
2022-08-05T20:20:11.235Z,3.08
2022-08-05T20:25:13.168Z,2.72
2022-08-05T20:30:15.381Z,2.40
2022-08-05T20:35:23.684Z,2.33
2022-08-05T20:40:26.508Z,1.90
2022-08-05T20:45:55.968Z,1.58
2022-08-05T20:50:52.063Z,1.35
2022-08-05T20:55:56.479Z,1.27
2022-08-05T21:01:10.737Z,0.95
2022-08-05T21:06:27.626Z,1.00
2022-08-05T21:12:07.034Z,0.80
2022-08-05T21:16:52.540Z,0.90
2022-08-05T21:21:54.389Z,0.80
2022-08-05T21:26:58.427Z,0.90
2022-08-05T21:32:04.187Z,1.33
2022-08-05T21:37:08.184Z,0.77
2022-08-05T21:42:30.659Z,0.77
2022-08-05T21:47:54.703Z,1.00
2022-08-05T21:52:58.747Z,1.10
2022-08-05T21:58:06.765Z,0.70
2022-08-05T22:03:15.226Z,0.85
2022-08-05T22:08:22.456Z,1.08
2022-08-05T22:14:32.341Z,1.65
2022-08-05T22:18:49.247Z,1.40
2022-08-05T22:24:13.274Z,1.00
2022-08-05T22:29:32.982Z,1.00
2022-08-05T22:34:35.214Z,1.27
2022-08-05T22:39:38.652Z,1.10
2022-08-05T22:44:48.476Z,0.88
2022-08-05T22:50:19.513Z,1.10
2022-08-05T22:55:24.130Z,1.20
2022-08-05T23:00:28.408Z,1.17
2022-08-05T23:05:35.924Z,1.13
2022-08-05T23:10:38.341Z,1.50
2022-08-05T23:15:40.895Z,1.60
2022-08-05T23:20:43.213Z,1.50
2022-08-05T23:25:52.145Z,1.20
2022-08-05T23:31:14.829Z,1.30
2022-08-05T23:36:18.766Z,1.55
2022-08-05T23:41:21.214Z,1.48
2022-08-05T23:46:23.758Z,1.45
2022-08-05T23:51:25.631Z,1.67
2022-08-05T23:56:28.139Z,1.63
